createdAt,value
2022-12-22T00:02:39.614Z,95790.41
2022-12-22T00:05:59.874Z,95787.31
2022-12-22T00:09:20.242Z,95783.41
2022-12-22T00:12:40.285Z,95772.63
2022-12-22T00:16:00.546Z,95774.56
2022-12-22T00:19:21.078Z,95768.00
2022-12-22T00:22:43.479Z,95770.31
2022-12-22T00:26:05.325Z,95758.44
2022-12-22T00:29:31.221Z,95753.56
2022-12-22T00:32:55.531Z,95743.38
2022-12-22T00:36:15.687Z,95741.94
2022-12-22T00:39:35.751Z,95741.50
2022-12-22T00:42:55.900Z,95733.25
2022-12-22T00:46:17.707Z,95734.22
2022-12-22T00:49:38.117Z,95737.81
2022-12-22T00:52:58.510Z,95735.31
2022-12-22T00:56:19.059Z,95736.03
2022-12-22T00:59:39.844Z,95728.38
2022-12-22T01:03:00.122Z,95733.78
2022-12-22T01:06:21.518Z,95720.56
2022-12-22T01:09:41.818Z,95712.78
2022-12-22T01:13:01.955Z,95713.75
2022-12-22T01:16:22.061Z,95718.91
2022-12-22T01:19:42.162Z,95714.44
2022-12-22T01:23:02.353Z,95717.94
2022-12-22T01:26:23.956Z,95718.78
2022-12-22T01:29:43.805Z,95713.63
2022-12-22T01:33:04.036Z,95715.28
2022-12-22T01:36:24.075Z,95709.19
2022-12-22T01:39:44.164Z,95709.28
2022-12-22T01:43:04.047Z,95715.53
2022-12-22T01:46:43.860Z,95711.94
2022-12-22T01:50:03.987Z,95706.78
2022-12-22T01:53:27.966Z,95697.06
2022-12-22T01:56:48.309Z,95693.69
2022-12-22T02:00:08.279Z,95697.19
2022-12-22T02:03:37.684Z,95700.53
2022-12-22T02:07:00.830Z,95699.19
2022-12-22T02:11:00.437Z,95699.78
2022-12-22T02:14:57.297Z,95699.50
2022-12-22T02:18:44.829Z,95697.19
2022-12-22T02:22:20.116Z,95701.97
2022-12-22T02:25:49.248Z,95692.94
2022-12-22T02:29:10.709Z,95694.38
2022-12-22T02:32:31.181Z,95688.56
2022-12-22T02:36:23.705Z,95707.34
2022-12-22T02:40:18.573Z,95699.88
2022-12-22T02:44:03.304Z,95692.41
2022-12-22T02:47:42.574Z,95688.28
2022-12-22T02:51:09.463Z,95686.06
2022-12-22T02:54:31.066Z,95685.81
2022-12-22T02:57:51.327Z,95676.13
2022-12-22T03:01:11.820Z,95676.16
2022-12-22T03:04:31.818Z,95676.19
2022-12-22T03:07:51.777Z,95665.91
2022-12-22T03:11:11.775Z,95658.97
2022-12-22T03:14:31.878Z,95658.00
2022-12-22T03:17:51.777Z,95660.41
2022-12-22T03:21:11.854Z,95661.66
2022-12-22T03:24:31.856Z,95650.50
2022-12-22T03:27:33.377Z,95652.59
2022-12-22T03:30:35.250Z,95650.22
2022-12-22T03:33:37.180Z,95633.50
2022-12-22T03:36:38.722Z,95643.97
2022-12-22T03:39:40.243Z,95640.88
2022-12-22T03:43:00.625Z,95641.59
2022-12-22T03:46:22.220Z,95637.66
2022-12-22T03:49:26.138Z,95627.91
2022-12-22T03:52:27.631Z,95616.34
2022-12-22T03:55:29.324Z,95631.84
2022-12-22T03:58:30.860Z,95627.22
2022-12-22T04:01:33.919Z,95632.50
2022-12-22T04:04:35.577Z,95635.72
2022-12-22T04:07:37.150Z,95632.38
2022-12-22T04:10:57.327Z,95617.03
2022-12-22T04:13:59.075Z,95627.06
2022-12-22T04:17:01.335Z,95637.09
2022-12-22T04:20:03.109Z,95634.69
2022-12-22T04:23:04.723Z,95634.44
2022-12-22T04:26:06.250Z,95639.69
2022-12-22T04:29:07.925Z,95630.31
2022-12-22T04:32:09.501Z,95630.56
2022-12-22T04:35:11.606Z,95621.50
2022-12-22T04:38:13.161Z,95624.28
2022-12-22T04:41:15.019Z,95600.41
2022-12-22T04:44:16.613Z,95611.25
2022-12-22T04:47:18.817Z,95594.25
2022-12-22T04:50:20.397Z,95598.25
2022-12-22T04:53:23.045Z,95582.06
2022-12-22T04:56:24.568Z,95581.75
2022-12-22T04:59:26.244Z,95587.59
2022-12-22T05:02:27.886Z,95586.63
2022-12-22T05:05:29.431Z,95582.69
2022-12-22T05:08:31.057Z,95591.19
2022-12-22T05:11:32.590Z,95591.03
2022-12-22T05:14:34.161Z,95573.28
2022-12-22T05:17:38.215Z,95575.44
2022-12-22T05:20:39.782Z,95564.81
2022-12-22T05:23:41.563Z,95572.47
2022-12-22T05:26:43.374Z,95573.16
2022-12-22T05:29:44.940Z,95579.88
2022-12-22T05:32:46.638Z,95575.22
2022-12-22T05:35:48.177Z,95559.63
2022-12-22T05:38:49.731Z,95572.91
2022-12-22T05:41:51.267Z,95570.91
2022-12-22T05:44:53.190Z,95573.16
2022-12-22T05:47:54.717Z,95584.88
2022-12-22T05:50:56.267Z,95571.59
2022-12-22T05:53:57.856Z,95571.09
2022-12-22T05:56:59.357Z,95570.09
2022-12-22T06:00:01.178Z,95570.34
2022-12-22T06:03:02.855Z,95568.06
2022-12-22T06:06:05.276Z,95572.38
2022-12-22T06:09:06.809Z,95568.59
2022-12-22T06:12:08.518Z,95565.09
2022-12-22T06:15:13.162Z,95574.22
2022-12-22T06:18:14.748Z,95580.63
2022-12-22T06:21:16.304Z,95560.94
2022-12-22T06:24:17.904Z,95567.69
2022-12-22T06:27:19.448Z,95561.94
2022-12-22T06:30:21.952Z,95562.47
2022-12-22T06:33:26.138Z,95558.69
2022-12-22T06:36:27.664Z,95561.47
2022-12-22T06:39:29.198Z,95562.31
2022-12-22T06:42:49.425Z,95554.34
2022-12-22T06:45:51.389Z,95558.97
2022-12-22T06:48:52.910Z,95578.25
2022-12-22T06:51:54.509Z,95575.44
2022-12-22T06:54:56.036Z,95584.25
2022-12-22T06:57:57.540Z,95592.56
2022-12-22T07:00:59.071Z,95591.97
2022-12-22T07:04:00.724Z,95583.31
2022-12-22T07:07:02.260Z,95584.50
2022-12-22T07:10:05.418Z,95571.94
2022-12-22T07:13:19.307Z,95571.94
2022-12-22T07:16:21.870Z,95574.06
2022-12-22T07:19:23.405Z,95566.41
2022-12-22T07:22:29.923Z,95575.19
2022-12-22T07:25:32.463Z,95562.16
2022-12-22T07:28:35.758Z,95581.78
2022-12-22T07:31:37.377Z,95553.84
2022-12-22T07:34:38.992Z,95554.28
2022-12-22T07:37:40.555Z,95550.09
2022-12-22T07:40:43.107Z,95561.94
2022-12-22T07:43:45.807Z,95564.41
2022-12-22T07:46:47.793Z,95573.28
2022-12-22T07:50:18.344Z,95568.69
2022-12-22T07:53:19.859Z,95570.94
2022-12-22T07:56:21.368Z,95556.34
2022-12-22T07:59:23.018Z,95556.56
2022-12-22T08:02:24.647Z,95556.88
2022-12-22T08:05:26.433Z,95565.22
2022-12-22T08:08:28.389Z,95563.53
2022-12-22T08:11:29.923Z,95583.13
2022-12-22T08:14:31.461Z,95578.00
2022-12-22T08:17:32.994Z,95568.50
2022-12-22T08:20:34.506Z,95583.34
2022-12-22T08:23:36.464Z,95588.19
2022-12-22T08:26:43.568Z,95588.19
2022-12-22T08:29:49.886Z,95584.22
2022-12-22T08:32:51.880Z,95591.88
2022-12-22T08:35:55.626Z,95588.06
2022-12-22T08:38:58.507Z,95586.75
2022-12-22T08:42:01.233Z,95592.09
2022-12-22T08:45:02.861Z,95584.44
2022-12-22T08:48:04.679Z,95593.94
2022-12-22T08:51:06.277Z,95575.50
2022-12-22T08:54:08.552Z,95580.84
2022-12-22T08:57:10.482Z,95592.97
2022-12-22T09:00:13.149Z,95576.16
2022-12-22T09:03:15.165Z,95583.78
2022-12-22T09:06:22.434Z,95583.94
2022-12-22T09:09:32.335Z,95567.31
2022-12-22T09:12:34.954Z,95580.91
2022-12-22T09:15:37.124Z,95568.78
2022-12-22T09:18:38.672Z,95560.81
2022-12-22T09:21:40.257Z,95574.09
2022-12-22T09:24:41.790Z,95580.75
2022-12-22T09:27:43.309Z,95571.09
2022-12-22T09:30:52.628Z,95581.78
2022-12-22T09:33:54.206Z,95577.16
2022-12-22T09:36:55.939Z,95574.19
2022-12-22T09:39:57.464Z,95571.22
2022-12-22T09:42:59.603Z,95571.53
2022-12-22T09:46:01.407Z,95544.28
2022-12-22T09:49:06.028Z,95558.44
2022-12-22T09:52:23.091Z,95541.19
2022-12-22T09:55:24.665Z,95553.03
2022-12-22T09:58:29.315Z,95554.22
2022-12-22T10:01:48.255Z,95558.88
2022-12-22T10:05:28.642Z,95564.03
2022-12-22T10:08:34.801Z,95553.56
2022-12-22T10:11:36.361Z,95556.53
2022-12-22T10:14:41.505Z,95554.88
2022-12-22T10:17:43.180Z,95556.88
2022-12-22T10:21:07.909Z,95548.88
2022-12-22T10:24:27.419Z,95541.53
2022-12-22T10:27:41.857Z,95541.06
2022-12-22T10:30:44.687Z,95546.06
2022-12-22T10:33:48.859Z,95546.06
2022-12-22T10:36:55.316Z,95548.72
2022-12-22T10:39:57.251Z,95551.56
2022-12-22T10:42:59.863Z,95543.03
2022-12-22T10:46:03.428Z,95556.22
2022-12-22T10:49:23.770Z,95550.53
2022-12-22T10:52:32.317Z,95566.19
2022-12-22T10:55:35.953Z,95577.03
2022-12-22T10:58:55.022Z,95577.19
2022-12-22T11:02:26.299Z,95577.69
2022-12-22T11:05:29.491Z,95587.84
2022-12-22T11:08:32.058Z,95563.88
2022-12-22T11:11:51.972Z,95538.06
2022-12-22T11:15:02.625Z,95525.41
2022-12-22T11:18:21.152Z,95507.22
2022-12-22T11:21:36.332Z,95513.56
2022-12-22T11:25:12.911Z,95503.06
2022-12-22T11:28:22.868Z,95506.72
2022-12-22T11:31:56.134Z,95502.38
2022-12-22T11:35:19.246Z,95506.72
2022-12-22T11:38:39.581Z,95505.19
2022-12-22T11:42:18.734Z,95504.72
2022-12-22T11:45:57.258Z,95497.38
2022-12-22T11:49:28.401Z,95516.84
2022-12-22T11:52:48.359Z,95509.38
2022-12-22T11:56:04.292Z,95500.09
2022-12-22T11:59:11.746Z,95501.44
2022-12-22T12:02:33.234Z,95502.91
2022-12-22T12:05:45.245Z,95500.25
2022-12-22T12:08:58.919Z,95498.59
2022-12-22T12:12:12.327Z,95481.63
2022-12-22T12:15:16.581Z,95492.59
2022-12-22T12:18:29.003Z,95496.09
2022-12-22T12:22:01.709Z,95491.91
2022-12-22T12:25:25.411Z,95483.06
2022-12-22T12:28:43.014Z,95490.06
2022-12-22T12:32:15.488Z,95502.72
2022-12-22T12:35:38.756Z,95495.56
2022-12-22T12:39:08.696Z,95493.06
2022-12-22T12:42:33.380Z,95502.88
2022-12-22T12:45:41.052Z,95515.72
2022-12-22T12:48:42.752Z,95496.84
2022-12-22T12:51:48.829Z,95496.06
2022-12-22T12:54:52.291Z,95498.19
2022-12-22T12:57:54.005Z,95517.84
2022-12-22T13:00:59.040Z,95495.16
2022-12-22T13:04:04.346Z,95506.31
2022-12-22T13:07:06.786Z,95514.47
2022-12-22T13:10:25.146Z,95525.44
2022-12-22T13:13:26.623Z,95513.78
2022-12-22T13:16:35.093Z,95499.44
2022-12-22T13:19:37.269Z,95529.44
2022-12-22T13:22:41.931Z,95514.09
2022-12-22T13:25:56.685Z,95531.63
2022-12-22T13:28:59.040Z,95539.25
2022-12-22T13:32:23.766Z,95537.75
2022-12-22T13:35:38.561Z,95547.59
2022-12-22T13:38:44.385Z,95542.25
2022-12-22T13:41:49.912Z,95542.94
2022-12-22T13:44:51.777Z,95552.41
2022-12-22T13:47:53.534Z,95558.56
2022-12-22T13:51:04.159Z,95545.75
2022-12-22T13:54:11.222Z,95556.41
2022-12-22T13:57:19.422Z,95568.75
2022-12-22T14:00:26.519Z,95565.09
2022-12-22T14:03:58.402Z,95572.91
2022-12-22T14:06:49.526Z,95566.72
2022-12-22T14:09:56.191Z,95572.06
2022-12-22T14:12:58.012Z,95575.56
2022-12-22T14:16:02.058Z,95576.06
2022-12-22T14:19:04.930Z,95586.06
2022-12-22T14:22:28.903Z,95601.91
2022-12-22T14:25:39.863Z,95603.75
2022-12-22T14:28:50.638Z,95601.25
2022-12-22T14:31:58.180Z,95596.75
2022-12-22T14:34:59.881Z,95610.09
2022-12-22T14:38:17.483Z,95615.78
2022-12-22T14:41:39.438Z,95618.75
2022-12-22T14:44:46.324Z,95606.41
2022-12-22T14:47:47.875Z,95612.91
2022-12-22T14:50:50.985Z,95612.91
2022-12-22T14:54:02.653Z,95609.41
2022-12-22T14:57:16.512Z,95619.25
2022-12-22T15:00:27.472Z,95621.28
2022-12-22T15:03:37.016Z,95612.09
2022-12-22T15:06:41.498Z,95622.59
2022-12-22T15:13:12.023Z,95615.28
2022-12-22T15:16:19.338Z,95620.94
2022-12-22T15:19:22.590Z,95622.81
2022-12-22T15:22:24.291Z,95627.09
2022-12-22T15:25:26.406Z,95627.09
2022-12-22T15:28:27.920Z,95631.97
2022-12-22T15:31:29.689Z,95645.16
2022-12-22T15:34:32.427Z,95651.47
2022-12-22T15:37:33.925Z,95651.47
2022-12-22T15:40:35.604Z,95664.16
2022-12-22T15:43:57.372Z,95661.63
2022-12-22T15:46:59.083Z,95668.63
2022-12-22T15:50:00.687Z,95666.81
2022-12-22T15:53:04.838Z,95671.47
2022-12-22T15:56:17.248Z,95671.47
2022-12-22T15:59:27.906Z,95666.34
2022-12-22T16:02:29.582Z,95668.81
2022-12-22T16:05:32.671Z,95669.16
2022-12-22T16:08:38.075Z,95677.31
2022-12-22T16:11:39.883Z,95686.31
2022-12-22T16:14:50.288Z,95678.00
2022-12-22T16:17:53.043Z,95684.81
2022-12-22T16:20:55.954Z,95680.00
2022-12-22T16:23:58.670Z,95671.81
2022-12-22T16:27:02.285Z,95674.28
2022-12-22T16:30:05.129Z,95674.13
2022-12-22T16:33:06.629Z,95667.66
2022-12-22T16:36:08.727Z,95669.47
2022-12-22T16:39:10.284Z,95679.00
2022-12-22T16:45:36.018Z,95677.47
2022-12-22T16:48:46.834Z,95664.50
2022-12-22T16:51:52.043Z,95673.66
2022-12-22T16:54:53.575Z,95668.47
2022-12-22T16:57:55.486Z,95681.81
2022-12-22T17:00:57.025Z,95672.31
2022-12-22T17:04:02.725Z,95684.66
2022-12-22T17:07:06.468Z,95696.31
2022-12-22T17:10:14.625Z,95684.81
2022-12-22T17:13:16.725Z,95680.16
2022-12-22T17:16:20.508Z,95688.50
2022-12-22T17:19:22.077Z,95689.66
2022-12-22T17:22:27.577Z,95691.00
2022-12-22T17:25:31.065Z,95686.66
2022-12-22T17:28:33.918Z,95687.00
2022-12-22T17:31:36.128Z,95682.81
2022-12-22T17:34:37.942Z,95673.66
2022-12-22T17:37:39.789Z,95667.69
2022-12-22T17:40:41.677Z,95660.84
2022-12-22T17:43:43.991Z,95674.66
2022-12-22T17:46:46.141Z,95657.16
2022-12-22T17:49:48.106Z,95667.16
2022-12-22T17:52:50.057Z,95672.66
2022-12-22T17:56:08.950Z,95670.34
2022-12-22T17:59:12.056Z,95672.16
2022-12-22T18:02:21.814Z,95678.50
2022-12-22T18:05:27.806Z,95673.31
2022-12-22T18:08:29.458Z,95667.16
2022-12-22T18:11:31.214Z,95676.97
2022-12-22T18:14:32.749Z,95668.31
2022-12-22T18:17:35.987Z,95664.00
2022-12-22T18:20:37.778Z,95661.50
2022-12-22T18:23:43.159Z,95660.97
2022-12-22T18:26:49.385Z,95639.31
2022-12-22T18:29:51.013Z,95648.16
2022-12-22T18:32:54.226Z,95639.66
2022-12-22T18:35:58.231Z,95648.66
2022-12-22T18:39:01.555Z,95647.31
2022-12-22T18:42:03.789Z,95633.50
2022-12-22T18:45:05.843Z,95637.00
2022-12-22T18:48:07.413Z,95620.34
2022-12-22T18:51:25.738Z,95607.16
2022-12-22T18:54:33.218Z,95618.81
2022-12-22T18:57:34.747Z,95618.00
2022-12-22T19:00:36.782Z,95609.50
2022-12-22T19:03:38.340Z,95614.31
2022-12-22T19:06:39.861Z,95604.66
2022-12-22T19:09:42.647Z,95598.84
2022-12-22T19:12:47.434Z,95604.47
2022-12-22T19:15:49.426Z,95604.00
2022-12-22T19:18:51.034Z,95593.31
2022-12-22T19:21:53.663Z,95604.97
2022-12-22T19:24:57.539Z,95609.63
2022-12-22T19:28:14.398Z,95601.13
2022-12-22T19:31:21.839Z,95599.63
2022-12-22T19:34:23.482Z,95589.31
2022-12-22T19:37:25.024Z,95593.47
2022-12-22T19:40:33.363Z,95601.28
2022-12-22T19:43:35.043Z,95586.31
2022-12-22T19:46:36.895Z,95588.81
2022-12-22T19:49:38.472Z,95578.47
2022-12-22T19:52:40.097Z,95574.19
2022-12-22T19:55:45.025Z,95574.97
2022-12-22T19:58:46.618Z,95567.81
2022-12-22T20:01:48.338Z,95548.16
2022-12-22T20:04:50.650Z,95564.50
2022-12-22T20:07:55.732Z,95560.66
2022-12-22T20:10:59.048Z,95558.84
2022-12-22T20:14:00.795Z,95558.69
2022-12-22T20:17:02.432Z,95545.88
2022-12-22T20:20:04.433Z,95540.56
2022-12-22T20:23:20.747Z,95538.75
2022-12-22T20:26:25.274Z,95540.22
2022-12-22T20:29:26.823Z,95531.22
2022-12-22T20:32:28.867Z,95524.75
2022-12-22T20:35:30.651Z,95517.59
2022-12-22T20:38:38.334Z,95510.25
2022-12-22T20:41:39.929Z,95516.75
2022-12-22T20:45:03.442Z,95514.25
2022-12-22T20:48:03.344Z,95520.25
2022-12-22T20:51:10.442Z,95520.75
2022-12-22T20:54:14.860Z,95521.25
2022-12-22T20:57:16.893Z,95520.75
2022-12-22T21:00:26.169Z,95513.06
2022-12-22T21:03:28.344Z,95509.09
2022-12-22T21:06:38.446Z,95501.09
2022-12-22T21:09:41.457Z,95514.91
2022-12-22T21:12:43.235Z,95512.91
2022-12-22T21:15:48.505Z,95515.41
2022-12-22T21:18:50.971Z,95517.41
2022-12-22T21:21:52.723Z,95518.25
2022-12-22T21:24:54.239Z,95525.25
2022-12-22T21:27:56.551Z,95513.06
2022-12-22T21:30:58.543Z,95515.91
2022-12-22T21:34:00.213Z,95518.75
2022-12-22T21:37:02.896Z,95501.25
2022-12-22T21:40:05.642Z,95500.59
2022-12-22T21:43:11.171Z,95500.75
2022-12-22T21:46:13.352Z,95493.13
2022-12-22T21:49:20.053Z,95496.94
2022-12-22T21:52:22.025Z,95487.63
2022-12-22T21:55:31.596Z,95470.81
2022-12-22T21:58:33.149Z,95470.28
2022-12-22T22:01:35.152Z,95465.31
2022-12-22T22:04:36.769Z,95459.47
2022-12-22T22:07:38.305Z,95445.69
2022-12-22T22:10:42.497Z,95451.16
2022-12-22T22:13:44.039Z,95444.34
2022-12-22T22:16:45.565Z,95445.53
2022-12-22T22:19:47.068Z,95440.34
2022-12-22T22:22:50.284Z,95436.19
2022-12-22T22:25:58.664Z,95431.19
2022-12-22T22:29:00.179Z,95429.53
2022-12-22T22:32:01.731Z,95426.19
2022-12-22T22:35:03.564Z,95422.00
2022-12-22T22:38:05.088Z,95411.72
2022-12-22T22:41:06.658Z,95404.72
2022-12-22T22:44:08.257Z,95399.72
2022-12-22T22:47:09.817Z,95386.59
2022-12-22T22:50:11.835Z,95384.09
2022-12-22T22:53:13.724Z,95384.41
2022-12-22T22:56:15.318Z,95385.41
2022-12-22T22:59:16.832Z,95385.75
2022-12-22T23:02:18.577Z,95381.59
2022-12-22T23:05:22.982Z,95374.59
2022-12-22T23:08:24.982Z,95367.13
2022-12-22T23:11:26.769Z,95361.13
2022-12-22T23:14:28.424Z,95361.66
2022-12-22T23:17:29.971Z,95359.97
2022-12-22T23:20:31.584Z,95354.97
2022-12-22T23:23:33.805Z,95356.16
2022-12-22T23:26:35.532Z,95346.69
2022-12-22T23:29:37.415Z,95349.50
2022-12-22T23:32:38.989Z,95347.03
2022-12-22T23:35:42.285Z,95337.69
2022-12-22T23:38:44.208Z,95329.22
2022-12-22T23:41:45.795Z,95339.19
2022-12-22T23:44:48.103Z,95337.84
2022-12-22T23:47:49.664Z,95333.56
2022-12-22T23:50:51.488Z,95310.78
2022-12-22T23:53:54.447Z,95297.78
2022-12-22T23:56:56.047Z,95295.31
2022-12-22T23:59:57.593Z,95294.28
